Time;durP1;ratioP1;P1;durP2;ratioP2;P2;SDS_P1;SDS_P2;PMS_P1;PMS_P2;Temp;Humidity;BMP_temperature;BMP_pressure;BME280_temperature;BME280_humidity;BME280_pressure;Samples;Min_cycle;Max_cycle;Signal;HPM_P1;HPM_P2
2021/07/18 00:02:14;;;;;;;3.73;3.03;;;;;;;;;;4927230;29;20812;-81
2021/07/18 00:04:43;;;;;;;4.80;3.37;;;;;;;;;;4932430;29;20433;-80
2021/07/18 00:07:10;;;;;;;5.60;3.23;;;;;;;;;;4934519;29;20427;-82
2021/07/18 00:09:37;;;;;;;4.80;3.20;;;;;;;;;;4926258;29;20445;-81
2021/07/18 00:12:04;;;;;;;3.40;3.07;;;;;;;;;;4931995;29;20795;-80
2021/07/18 00:14:32;;;;;;;6.30;3.80;;;;;;;;;;4931905;29;20458;-81
2021/07/18 00:16:59;;;;;;;4.53;3.73;;;;;;;;;;4922153;29;20443;-83
2021/07/18 00:19:27;;;;;;;5.03;3.70;;;;;;;;;;4921152;29;20456;-82
2021/07/18 00:21:55;;;;;;;4.93;3.07;;;;;;;;;;4928863;29;20455;-82
2021/07/18 00:24:22;;;;;;;9.70;3.40;;;;;;;;;;4926692;29;20792;-82
2021/07/18 00:26:49;;;;;;;5.23;3.60;;;;;;;;;;4925949;29;21056;-81
2021/07/18 00:29:17;;;;;;;6.83;3.80;;;;;;;;;;4927683;29;20790;-82
2021/07/18 00:31:44;;;;;;;5.10;3.57;;;;;;;;;;4923808;29;20433;-80
2021/07/18 00:34:11;;;;;;;5.53;3.43;;;;;;;;;;4920163;29;20503;-82
2021/07/18 00:36:38;;;;;;;3.87;3.40;;;;;;;;;;4926653;29;20444;-83
2021/07/18 00:39:07;;;;;;;6.23;3.80;;;;;;;;;;4935670;29;20469;-82
2021/07/18 00:41:34;;;;;;;5.57;3.30;;;;;;;;;;4933687;29;20521;-82
2021/07/18 00:44:01;;;;;;;4.87;3.40;;;;;;;;;;4935872;29;20940;-82
2021/07/18 00:46:28;;;;;;;3.97;3.60;;;;;;;;;;4932812;29;20422;-82
2021/07/18 00:48:55;;;;;;;6.10;3.30;;;;;;;;;;4920992;29;20484;-81
2021/07/18 00:51:23;;;;;;;6.20;3.53;;;;;;;;;;4931716;29;20964;-81
2021/07/18 00:53:50;;;;;;;4.30;3.23;;;;;;;;;;4932461;29;20482;-82
2021/07/18 00:56:19;;;;;;;3.70;3.17;;;;;;;;;;4926256;29;21025;-81
2021/07/18 00:58:50;;;;;;;4.63;3.57;;;;;;;;;;4912232;29;20835;-82
2021/07/18 01:01:18;;;;;;;9.40;4.43;;;;;;;;;;4935750;29;20435;-81
2021/07/18 01:03:45;;;;;;;5.80;3.93;;;;;;;;;;4927764;29;20472;-83
2021/07/18 01:06:12;;;;;;;4.60;3.77;;;;;;;;;;4935480;29;20829;-82
2021/07/18 01:08:39;;;;;;;4.23;2.80;;;;;;;;;;4929460;29;20986;-80
2021/07/18 01:11:06;;;;;;;9.17;3.90;;;;;;;;;;4931330;29;20433;-81
2021/07/18 01:13:35;;;;;;;6.10;4.20;;;;;;;;;;4932659;29;20492;-81
2021/07/18 01:16:02;;;;;;;4.47;3.57;;;;;;;;;;4922172;29;20445;-80
2021/07/18 01:18:29;;;;;;;4.57;3.70;;;;;;;;;;4920467;29;20454;-81
2021/07/18 01:20:58;;;;;;;4.10;3.60;;;;;;;;;;4922129;29;20989;-82
2021/07/18 01:23:26;;;;;;;4.33;3.80;;;;;;;;;;4930999;29;20448;-81
2021/07/18 01:25:53;;;;;;;4.10;3.70;;;;;;;;;;4930989;29;20421;-80
2021/07/18 01:28:21;;;;;;;6.43;3.80;;;;;;;;;;4930423;29;20466;-81
2021/07/18 01:30:49;;;;;;;6.87;4.27;;;;;;;;;;4924509;29;20479;-81
2021/07/18 01:33:16;;;;;;;7.13;3.17;;;;;;;;;;4933020;29;20581;-81
2021/07/18 01:35:43;;;;;;;4.50;3.63;;;;;;;;;;4943007;28;20441;-82
2021/07/18 01:38:12;;;;;;;3.90;3.50;;;;;;;;;;4921518;29;20517;-79
2021/07/18 01:40:40;;;;;;;4.77;3.67;;;;;;;;;;4923557;29;20466;-81
2021/07/18 01:43:08;;;;;;;7.97;4.33;;;;;;;;;;4932375;29;20458;-81
2021/07/18 01:45:35;;;;;;;8.70;3.80;;;;;;;;;;4931424;29;20451;-80
2021/07/18 01:48:02;;;;;;;6.63;4.07;;;;;;;;;;4919989;29;20457;-80
2021/07/18 01:50:32;;;;;;;5.07;3.93;;;;;;;;;;4932379;29;20446;-83
2021/07/18 01:52:59;;;;;;;9.33;4.20;;;;;;;;;;4930518;29;20440;-81
2021/07/18 01:55:26;;;;;;;4.30;3.70;;;;;;;;;;4930509;29;20462;-82
2021/07/18 01:57:55;;;;;;;4.40;4.00;;;;;;;;;;4932346;29;20474;-81
2021/07/18 02:00:22;;;;;;;5.07;4.20;;;;;;;;;;4925297;29;20465;-80
2021/07/18 02:02:49;;;;;;;9.30;3.77;;;;;;;;;;4934289;28;20436;-82
2021/07/18 02:05:17;;;;;;;5.90;3.83;;;;;;;;;;4935414;28;20471;-83
2021/07/18 02:07:45;;;;;;;5.63;3.73;;;;;;;;;;4912355;29;20489;-82
2021/07/18 02:10:12;;;;;;;7.80;4.50;;;;;;;;;;4915231;29;20842;-82
2021/07/18 02:12:40;;;;;;;6.47;3.93;;;;;;;;;;4930743;29;20471;-82
2021/07/18 02:15:09;;;;;;;5.27;4.00;;;;;;;;;;4931988;29;20537;-80
2021/07/18 02:17:37;;;;;;;7.80;4.03;;;;;;;;;;4930694;29;20479;-81
2021/07/18 02:20:06;;;;;;;5.60;4.50;;;;;;;;;;4929859;29;20428;-79
2021/07/18 02:22:47;;;;;;;6.67;4.33;;;;;;;;;;4910791;29;20501;-81
2021/07/18 02:25:16;;;;;;;5.20;4.20;;;;;;;;;;4903244;29;20478;-82
2021/07/18 02:27:43;;;;;;;7.80;4.60;;;;;;;;;;4914542;29;20998;-80
2021/07/18 02:30:13;;;;;;;6.53;4.50;;;;;;;;;;4902214;29;20448;-81
2021/07/18 02:32:42;;;;;;;5.43;4.13;;;;;;;;;;4907978;29;20463;-82
2021/07/18 02:35:11;;;;;;;6.43;4.00;;;;;;;;;;4925020;29;20478;-81
2021/07/18 02:37:38;;;;;;;5.00;4.50;;;;;;;;;;4934691;29;20935;-81
2021/07/18 02:40:07;;;;;;;7.00;4.73;;;;;;;;;;4935527;29;20954;-82
2021/07/18 02:42:34;;;;;;;5.50;4.50;;;;;;;;;;4918305;29;20433;-82
2021/07/18 02:45:01;;;;;;;6.33;4.30;;;;;;;;;;4947597;28;20458;-81
2021/07/18 02:47:29;;;;;;;5.07;4.57;;;;;;;;;;4931432;29;20462;-81
2021/07/18 02:49:57;;;;;;;5.70;4.57;;;;;;;;;;4936073;29;20529;-82
2021/07/18 02:52:24;;;;;;;7.20;4.10;;;;;;;;;;4937790;29;20928;-81
2021/07/18 02:54:54;;;;;;;5.37;4.07;;;;;;;;;;4933073;29;21025;-81
2021/07/18 02:57:21;;;;;;;6.50;4.57;;;;;;;;;;4934144;29;20453;-82
2021/07/18 02:59:48;;;;;;;4.77;4.30;;;;;;;;;;4930649;29;20471;-81
2021/07/18 03:02:15;;;;;;;8.77;4.57;;;;;;;;;;4918601;29;20458;-82
2021/07/18 03:04:44;;;;;;;6.97;5.37;;;;;;;;;;4931699;29;20466;-80
2021/07/18 03:07:11;;;;;;;5.73;4.30;;;;;;;;;;4949783;28;20788;-80
2021/07/18 03:09:38;;;;;;;6.37;5.03;;;;;;;;;;4944939;29;20789;-82
2021/07/18 03:12:06;;;;;;;7.23;4.87;;;;;;;;;;4937524;29;20449;-81
2021/07/18 03:14:33;;;;;;;6.13;4.30;;;;;;;;;;4934877;29;20490;-82
2021/07/18 03:17:01;;;;;;;8.30;5.00;;;;;;;;;;4922227;29;20459;-81
2021/07/18 03:19:28;;;;;;;6.53;5.30;;;;;;;;;;4930560;29;20851;-81
2021/07/18 03:21:57;;;;;;;5.23;4.63;;;;;;;;;;4935255;29;20435;-79
2021/07/18 03:24:24;;;;;;;7.53;4.93;;;;;;;;;;4928057;29;20813;-81
2021/07/18 03:26:51;;;;;;;7.20;5.37;;;;;;;;;;4928357;29;20441;-82
2021/07/18 03:29:18;;;;;;;5.80;5.20;;;;;;;;;;4935927;28;20474;-82
2021/07/18 03:31:46;;;;;;;5.50;4.83;;;;;;;;;;4929746;29;20463;-80
2021/07/18 03:34:13;;;;;;;7.30;5.37;;;;;;;;;;4928916;29;20485;-80
2021/07/18 03:36:40;;;;;;;5.93;5.33;;;;;;;;;;4934504;29;20988;-82
2021/07/18 03:39:08;;;;;;;7.33;5.40;;;;;;;;;;4932745;29;20449;-82
2021/07/18 03:41:36;;;;;;;9.37;5.60;;;;;;;;;;4932887;29;20471;-81
2021/07/18 03:44:03;;;;;;;7.07;5.77;;;;;;;;;;4929195;29;20467;-81
2021/07/18 03:46:31;;;;;;;6.67;5.20;;;;;;;;;;4933540;29;20438;-81
2021/07/18 03:48:58;;;;;;;6.50;5.80;;;;;;;;;;4924563;29;20970;-82
2021/07/18 03:51:25;;;;;;;6.70;5.10;;;;;;;;;;4933725;29;20421;-81
2021/07/18 03:53:52;;;;;;;10.00;6.17;;;;;;;;;;4934633;29;20449;-81
2021/07/18 03:56:22;;;;;;;7.67;6.10;;;;;;;;;;4934199;28;20481;-80
2021/07/18 03:58:51;;;;;;;7.30;5.53;;;;;;;;;;4932601;29;20478;-80
2021/07/18 04:01:19;;;;;;;6.13;5.53;;;;;;;;;;4910877;29;20466;-80
2021/07/18 04:03:47;;;;;;;8.70;6.57;;;;;;;;;;4926333;29;20797;-81
2021/07/18 04:06:14;;;;;;;6.67;5.40;;;;;;;;;;4934235;29;20442;-82
2021/07/18 04:08:42;;;;;;;10.03;6.33;;;;;;;;;;4932754;28;20497;-81
2021/07/18 04:11:09;;;;;;;6.90;5.90;;;;;;;;;;4931971;29;20425;-82
2021/07/18 04:13:38;;;;;;;7.90;5.97;;;;;;;;;;4917060;29;20442;-82
2021/07/18 04:16:05;;;;;;;7.33;5.87;;;;;;;;;;4915854;29;20862;-81
2021/07/18 04:18:33;;;;;;;8.53;5.30;;;;;;;;;;4933917;29;20474;-80
2021/07/18 04:21:00;;;;;;;9.83;6.17;;;;;;;;;;4923901;29;20492;-81
2021/07/18 04:23:27;;;;;;;8.30;5.17;;;;;;;;;;4932830;29;20417;-82
2021/07/18 04:25:54;;;;;;;8.73;5.93;;;;;;;;;;4930780;29;20473;-81
2021/07/18 04:28:22;;;;;;;8.07;5.70;;;;;;;;;;4927914;29;20478;-80
2021/07/18 04:30:50;;;;;;;7.73;6.00;;;;;;;;;;4933779;29;20444;-80
2021/07/18 04:33:17;;;;;;;8.13;5.90;;;;;;;;;;4928629;29;20444;-81
2021/07/18 04:35:44;;;;;;;9.73;6.43;;;;;;;;;;4924447;29;20492;-80
2021/07/18 04:38:11;;;;;;;13.43;6.00;;;;;;;;;;4930441;29;20539;-82
2021/07/18 04:40:39;;;;;;;7.10;5.90;;;;;;;;;;4925123;29;20493;-80
2021/07/18 04:43:06;;;;;;;8.43;6.67;;;;;;;;;;4934030;29;20446;-82
2021/07/18 04:45:33;;;;;;;8.13;5.80;;;;;;;;;;4933375;29;20443;-81
2021/07/18 04:48:01;;;;;;;7.53;5.80;;;;;;;;;;4925661;29;20482;-81
2021/07/18 04:50:29;;;;;;;9.27;6.00;;;;;;;;;;4935126;29;20462;-81
2021/07/18 04:52:56;;;;;;;9.10;6.30;;;;;;;;;;4917729;29;20719;-81
2021/07/18 04:55:24;;;;;;;6.90;4.67;;;;;;;;;;4922495;29;20566;-81
2021/07/18 04:57:51;;;;;;;6.40;5.57;;;;;;;;;;4929150;29;20496;-81
2021/07/18 05:00:20;;;;;;;6.10;5.47;;;;;;;;;;4932243;29;20844;-81
2021/07/18 05:02:47;;;;;;;6.57;5.90;;;;;;;;;;4927712;29;20940;-80
2021/07/18 05:05:16;;;;;;;6.27;5.63;;;;;;;;;;4928455;29;20443;-81
2021/07/18 05:07:45;;;;;;;6.30;5.17;;;;;;;;;;4916556;29;20477;-80
2021/07/18 05:10:12;;;;;;;6.67;5.40;;;;;;;;;;4926990;29;20443;-81
2021/07/18 05:12:39;;;;;;;7.57;5.20;;;;;;;;;;4934382;29;20476;-81
2021/07/18 05:15:07;;;;;;;5.70;5.10;;;;;;;;;;4935005;29;20488;-82
2021/07/18 05:17:34;;;;;;;6.83;5.37;;;;;;;;;;4933110;29;20467;-82
2021/07/18 05:20:02;;;;;;;8.00;5.03;;;;;;;;;;4935480;29;20457;-81
2021/07/18 05:22:30;;;;;;;6.67;5.03;;;;;;;;;;4914537;29;20466;-81
2021/07/18 05:24:57;;;;;;;7.00;4.97;;;;;;;;;;4931131;29;20800;-82
2021/07/18 05:27:25;;;;;;;6.93;4.40;;;;;;;;;;4930978;29;20477;-81
2021/07/18 05:29:52;;;;;;;4.53;4.13;;;;;;;;;;4928281;29;20471;-82
2021/07/18 05:32:19;;;;;;;6.33;4.77;;;;;;;;;;4933007;29;20450;-80
2021/07/18 05:34:46;;;;;;;8.17;5.07;;;;;;;;;;4931122;28;20501;-80
2021/07/18 05:37:14;;;;;;;5.73;4.73;;;;;;;;;;4928057;29;20463;-80
2021/07/18 05:39:42;;;;;;;6.03;4.90;;;;;;;;;;4931106;29;20471;-81
2021/07/18 05:42:09;;;;;;;6.20;4.07;;;;;;;;;;4924057;29;20469;-81
2021/07/18 05:44:36;;;;;;;5.07;4.03;;;;;;;;;;4932593;29;20458;-81
2021/07/18 05:47:04;;;;;;;5.73;3.80;;;;;;;;;;4924376;29;20466;-81
2021/07/18 05:49:31;;;;;;;4.73;4.20;;;;;;;;;;4931629;29;20490;-82
2021/07/18 05:51:58;;;;;;;5.40;4.57;;;;;;;;;;4929865;29;20446;-82
2021/07/18 05:54:25;;;;;;;5.10;4.60;;;;;;;;;;4926375;29;21004;-82
2021/07/18 05:56:54;;;;;;;6.93;4.50;;;;;;;;;;4932090;29;20453;-81
2021/07/18 05:59:21;;;;;;;6.57;4.37;;;;;;;;;;4929098;29;20483;-82
2021/07/18 06:01:48;;;;;;;5.93;3.93;;;;;;;;;;4922180;29;20466;-82
2021/07/18 06:04:15;;;;;;;13.20;4.30;;;;;;;;;;4931000;29;20947;-83
2021/07/18 06:06:42;;;;;;;5.57;4.17;;;;;;;;;;4920915;29;20934;-82
2021/07/18 06:09:10;;;;;;;6.03;4.40;;;;;;;;;;4923077;28;20941;-80
2021/07/18 06:11:37;;;;;;;5.40;4.90;;;;;;;;;;4925056;29;20454;-81
2021/07/18 06:14:05;;;;;;;7.90;4.43;;;;;;;;;;4927147;29;20462;-82
2021/07/18 06:18:58;;;;;;;4.90;3.90;;;;;;;;;;4924041;29;20859;-81
2021/07/18 06:21:25;;;;;;;5.03;4.00;;;;;;;;;;4934983;29;20202;-81
2021/07/18 06:23:53;;;;;;;5.80;4.13;;;;;;;;;;4932349;29;20486;-82
2021/07/18 06:26:20;;;;;;;4.50;4.10;;;;;;;;;;4929386;29;20466;-83
2021/07/18 06:28:47;;;;;;;5.57;4.90;;;;;;;;;;4936255;29;20470;-82
2021/07/18 06:31:16;;;;;;;5.37;4.40;;;;;;;;;;4940351;28;20554;-83
2021/07/18 06:33:44;;;;;;;4.40;4.00;;;;;;;;;;4933558;29;20452;-83
2021/07/18 06:36:11;;;;;;;6.37;4.27;;;;;;;;;;4933712;29;20488;-81
2021/07/18 06:38:39;;;;;;;4.63;3.63;;;;;;;;;;4931038;29;20493;-81
2021/07/18 06:41:07;;;;;;;5.43;4.60;;;;;;;;;;4919880;29;20458;-80
2021/07/18 06:43:34;;;;;;;4.33;3.93;;;;;;;;;;4918194;29;20457;-82
2021/07/18 06:46:01;;;;;;;4.67;3.70;;;;;;;;;;4937663;29;20974;-80
2021/07/18 06:48:30;;;;;;;5.37;4.33;;;;;;;;;;4930208;29;20578;-81
2021/07/18 06:50:57;;;;;;;3.70;3.37;;;;;;;;;;4924243;29;20557;-81
2021/07/18 06:53:24;;;;;;;4.70;3.80;;;;;;;;;;4926418;29;20465;-82
2021/07/18 06:55:51;;;;;;;5.73;4.10;;;;;;;;;;4933835;29;20470;-81
2021/07/18 06:58:19;;;;;;;5.63;4.37;;;;;;;;;;4917437;29;20994;-80
2021/07/18 07:00:46;;;;;;;9.07;3.90;;;;;;;;;;4927391;29;20462;-81
2021/07/18 07:03:13;;;;;;;5.53;3.90;;;;;;;;;;4935043;29;20450;-81
2021/07/18 07:05:41;;;;;;;4.60;3.30;;;;;;;;;;4934119;29;20451;-82
2021/07/18 07:08:09;;;;;;;6.07;3.93;;;;;;;;;;4924808;29;20843;-82
2021/07/18 07:10:36;;;;;;;4.57;3.57;;;;;;;;;;4933958;29;20462;-81
2021/07/18 07:13:03;;;;;;;5.20;3.27;;;;;;;;;;4931878;29;20452;-80
2021/07/18 07:15:30;;;;;;;3.63;3.30;;;;;;;;;;4923121;29;20497;-79
2021/07/18 07:17:58;;;;;;;3.73;3.20;;;;;;;;;;4926309;29;20485;-79
2021/07/18 07:20:28;;;;;;;3.10;2.90;;;;;;;;;;4932479;29;20505;-80
2021/07/18 07:22:56;;;;;;;3.63;3.17;;;;;;;;;;4932080;29;20470;-83
2021/07/18 07:25:24;;;;;;;4.10;2.93;;;;;;;;;;4920509;29;20462;-82
2021/07/18 07:27:51;;;;;;;3.10;2.63;;;;;;;;;;4925353;29;20474;-83
2021/07/18 07:30:18;;;;;;;3.43;3.10;;;;;;;;;;4935296;29;20832;-81
2021/07/18 07:32:46;;;;;;;5.50;3.27;;;;;;;;;;4930837;29;20453;-82
2021/07/18 07:35:14;;;;;;;3.33;2.90;;;;;;;;;;4904236;29;20501;-81
2021/07/18 07:37:41;;;;;;;3.77;2.70;;;;;;;;;;4922347;29;20490;-84
2021/07/18 07:40:11;;;;;;;3.00;2.70;;;;;;;;;;4929901;29;20471;-82
2021/07/18 07:42:38;;;;;;;3.03;2.73;;;;;;;;;;4916322;29;20454;-82
2021/07/18 07:45:05;;;;;;;11.47;4.17;;;;;;;;;;4926077;29;20470;-82
2021/07/18 07:47:32;;;;;;;7.10;3.43;;;;;;;;;;4932271;29;20481;-81
2021/07/18 07:50:00;;;;;;;3.77;2.77;;;;;;;;;;4932546;29;20457;-85
2021/07/18 07:52:27;;;;;;;4.87;3.00;;;;;;;;;;4933649;29;20823;-83
2021/07/18 07:54:54;;;;;;;3.47;3.17;;;;;;;;;;4931659;29;20470;-85
2021/07/18 07:57:23;;;;;;;3.00;2.50;;;;;;;;;;4931921;29;20466;-82
2021/07/18 07:59:50;;;;;;;4.87;2.87;;;;;;;;;;4933407;29;20438;-83
2021/07/18 08:02:17;;;;;;;3.40;2.83;;;;;;;;;;4930946;29;20835;-83
2021/07/18 08:04:45;;;;;;;2.60;2.40;;;;;;;;;;4934254;29;20459;-83
2021/07/18 08:07:12;;;;;;;2.80;2.33;;;;;;;;;;4926297;29;20839;-82
2021/07/18 08:09:39;;;;;;;2.63;2.00;;;;;;;;;;4934087;29;20462;-82
2021/07/18 08:12:06;;;;;;;4.10;2.40;;;;;;;;;;4945517;28;20473;-81
2021/07/18 08:14:36;;;;;;;5.30;3.10;;;;;;;;;;4929073;29;20463;-85
2021/07/18 08:17:03;;;;;;;3.77;2.40;;;;;;;;;;4932209;29;20478;-83
2021/07/18 08:19:31;;;;;;;4.97;2.37;;;;;;;;;;4932168;29;20470;-84
2021/07/18 08:21:58;;;;;;;4.47;2.47;;;;;;;;;;4918144;29;21145;-83
2021/07/18 08:24:25;;;;;;;3.27;2.37;;;;;;;;;;4931473;29;20489;-82
2021/07/18 08:26:54;;;;;;;2.90;2.10;;;;;;;;;;4935808;28;21329;-83
2021/07/18 08:29:21;;;;;;;4.80;2.93;;;;;;;;;;4927960;29;20475;-83
2021/07/18 08:31:49;;;;;;;3.80;2.30;;;;;;;;;;4928456;29;20940;-83
2021/07/18 08:34:17;;;;;;;3.83;1.90;;;;;;;;;;4930371;29;20463;-84
2021/07/18 08:36:44;;;;;;;3.07;2.37;;;;;;;;;;4911889;29;20502;-81
2021/07/18 08:39:11;;;;;;;3.70;2.40;;;;;;;;;;4913846;28;21029;-83
2021/07/18 08:41:43;;;;;;;2.53;2.10;;;;;;;;;;4927409;29;21032;-81
2021/07/18 08:44:11;;;;;;;2.93;2.60;;;;;;;;;;4923129;29;20522;-82
2021/07/18 08:46:42;;;;;;;4.17;2.30;;;;;;;;;;4930404;29;20957;-83
2021/07/18 08:49:11;;;;;;;2.83;2.30;;;;;;;;;;4924591;29;20595;-81
2021/07/18 08:51:39;;;;;;;5.07;2.40;;;;;;;;;;4911021;29;20543;-83
2021/07/18 08:54:06;;;;;;;1.80;1.70;;;;;;;;;;4901130;29;20481;-81
2021/07/18 08:56:35;;;;;;;3.03;2.27;;;;;;;;;;4921862;29;20492;-82
2021/07/18 08:59:05;;;;;;;3.87;2.67;;;;;;;;;;4895110;29;20475;-84
2021/07/18 09:01:32;;;;;;;2.80;2.50;;;;;;;;;;4922454;29;20526;-81
2021/07/18 09:04:00;;;;;;;3.67;2.73;;;;;;;;;;4917990;29;20466;-81
2021/07/18 09:06:39;;;;;;;4.73;2.60;;;;;;;;;;4930367;29;20846;-81
2021/07/18 09:09:07;;;;;;;5.13;2.90;;;;;;;;;;4910077;29;20492;-83
2021/07/18 09:11:35;;;;;;;5.30;2.60;;;;;;;;;;4916885;29;20470;-82
2021/07/18 09:14:03;;;;;;;3.03;2.50;;;;;;;;;;4928644;29;20461;-81
2021/07/18 09:16:31;;;;;;;2.80;2.47;;;;;;;;;;4929896;29;20490;-81
2021/07/18 09:19:13;;;;;;;4.33;2.77;;;;;;;;;;4924991;29;20493;-82
2021/07/18 09:21:42;;;;;;;3.53;2.77;;;;;;;;;;4922303;29;20482;-81
2021/07/18 09:24:17;;;;;;;4.40;3.20;;;;;;;;;;4928103;29;20450;-83
2021/07/18 09:26:44;;;;;;;5.70;2.80;;;;;;;;;;4925743;29;20844;-83
2021/07/18 09:29:25;;;;;;;4.10;2.63;;;;;;;;;;4921143;29;20486;-83
2021/07/18 09:32:02;;;;;;;3.87;2.87;;;;;;;;;;4929805;29;20461;-82
2021/07/18 09:34:34;;;;;;;6.13;2.37;;;;;;;;;;4948192;29;20465;-81
2021/07/18 09:37:06;;;;;;;2.93;2.60;;;;;;;;;;4917591;29;21010;-82
2021/07/18 09:39:33;;;;;;;3.83;3.10;;;;;;;;;;4919130;29;20828;-83
2021/07/18 09:42:00;;;;;;;3.70;2.63;;;;;;;;;;4935216;29;20456;-80
2021/07/18 09:44:27;;;;;;;3.30;3.00;;;;;;;;;;4924952;29;20474;-82
2021/07/18 09:47:01;;;;;;;3.43;2.80;;;;;;;;;;4930457;29;20442;-80
2021/07/18 09:49:32;;;;;;;4.50;3.33;;;;;;;;;;4922827;29;20521;-80
2021/07/18 09:52:14;;;;;;;5.23;3.20;;;;;;;;;;4904155;29;20462;-80
2021/07/18 09:54:43;;;;;;;3.30;2.73;;;;;;;;;;4918537;29;20442;-82
2021/07/18 09:57:10;;;;;;;4.53;3.90;;;;;;;;;;4933844;29;20569;-81
2021/07/18 09:59:38;;;;;;;4.80;3.60;;;;;;;;;;4921582;29;20866;-81
2021/07/18 10:02:05;;;;;;;3.47;3.17;;;;;;;;;;4927706;29;20465;-81
2021/07/18 10:04:39;;;;;;;4.20;3.77;;;;;;;;;;4931059;29;20473;-79
2021/07/18 10:07:07;;;;;;;5.00;3.37;;;;;;;;;;4928149;29;20664;-81
2021/07/18 10:09:34;;;;;;;3.60;3.30;;;;;;;;;;4931286;29;20462;-79
2021/07/18 10:12:03;;;;;;;3.30;2.67;;;;;;;;;;4925149;29;20462;-81
2021/07/18 10:14:32;;;;;;;3.50;3.20;;;;;;;;;;4931404;29;20960;-80
2021/07/18 10:16:59;;;;;;;4.50;3.10;;;;;;;;;;4915611;29;20541;-78
2021/07/18 10:19:26;;;;;;;3.00;2.80;;;;;;;;;;4926854;29;20495;-78
2021/07/18 10:21:53;;;;;;;2.67;2.47;;;;;;;;;;4930094;29;20787;-77
2021/07/18 10:24:21;;;;;;;2.87;2.67;;;;;;;;;;4931582;29;20458;-78
2021/07/18 10:26:50;;;;;;;3.67;2.80;;;;;;;;;;4919586;29;20458;-79
2021/07/18 10:29:18;;;;;;;4.53;3.40;;;;;;;;;;4930900;29;20467;-78
2021/07/18 10:31:49;;;;;;;3.93;2.80;;;;;;;;;;4934196;28;20465;-78
2021/07/18 10:34:17;;;;;;;4.07;2.73;;;;;;;;;;4928907;29;20470;-77
2021/07/18 10:36:44;;;;;;;3.47;3.17;;;;;;;;;;4923892;29;20537;-81
2021/07/18 10:39:26;;;;;;;4.37;3.07;;;;;;;;;;4931919;29;20891;-77
2021/07/18 10:41:53;;;;;;;3.33;2.80;;;;;;;;;;4914018;29;20472;-78
2021/07/18 10:44:22;;;;;;;3.07;2.60;;;;;;;;;;4927271;29;20462;-77
2021/07/18 10:46:54;;;;;;;5.27;3.20;;;;;;;;;;4922818;29;20454;-78
2021/07/18 10:49:41;;;;;;;6.37;2.50;;;;;;;;;;4906238;29;21232;-78
2021/07/18 10:52:12;;;;;;;3.20;2.97;;;;;;;;;;4917153;29;20449;-78
2021/07/18 10:54:42;;;;;;;5.23;3.23;;;;;;;;;;4931494;29;20439;-79
2021/07/18 10:57:21;;;;;;;3.80;2.90;;;;;;;;;;4920264;29;20493;-78
2021/07/18 10:59:49;;;;;;;4.20;2.60;;;;;;;;;;4917064;29;20493;-77
2021/07/18 11:02:17;;;;;;;2.73;2.50;;;;;;;;;;4916445;29;20446;-78
2021/07/18 11:04:45;;;;;;;4.90;2.70;;;;;;;;;;4923439;29;20476;-76
2021/07/18 11:07:27;;;;;;;3.40;2.80;;;;;;;;;;4926538;29;20455;-78
2021/07/18 11:09:56;;;;;;;6.83;2.67;;;;;;;;;;4930250;29;20557;-78
2021/07/18 11:12:23;;;;;;;3.40;2.77;;;;;;;;;;4906015;29;20466;-77
2021/07/18 11:14:52;;;;;;;5.37;3.30;;;;;;;;;;4915490;29;20810;-77
2021/07/18 11:17:27;;;;;;;4.00;2.67;;;;;;;;;;4933559;29;20998;-78
2021/07/18 11:19:59;;;;;;;4.13;2.90;;;;;;;;;;4933855;29;20450;-77
2021/07/18 11:22:41;;;;;;;4.13;3.50;;;;;;;;;;4917476;29;20451;-79
2021/07/18 11:25:08;;;;;;;4.33;2.73;;;;;;;;;;4922804;29;20462;-76
2021/07/18 11:27:36;;;;;;;3.30;2.70;;;;;;;;;;4931568;29;20501;-80
2021/07/18 11:30:06;;;;;;;5.17;3.40;;;;;;;;;;4915261;29;20470;-77
2021/07/18 11:32:34;;;;;;;5.00;4.27;;;;;;;;;;4925235;29;20467;-77
2021/07/18 11:35:02;;;;;;;4.70;3.10;;;;;;;;;;4921290;29;21026;-79
2021/07/18 11:37:31;;;;;;;4.97;3.23;;;;;;;;;;4933722;29;20486;-79
2021/07/18 11:40:00;;;;;;;7.00;3.30;;;;;;;;;;4916973;29;20487;-77
2021/07/18 11:42:28;;;;;;;5.13;3.30;;;;;;;;;;4924949;29;20439;-81
2021/07/18 11:44:55;;;;;;;4.03;3.10;;;;;;;;;;4905019;29;20460;-77
2021/07/18 11:47:27;;;;;;;5.10;3.40;;;;;;;;;;4899391;29;21220;-78
2021/07/18 11:49:54;;;;;;;4.07;3.00;;;;;;;;;;4909930;29;20459;-79
2021/07/18 11:52:23;;;;;;;4.07;3.30;;;;;;;;;;4922632;29;20471;-77
2021/07/18 11:54:50;;;;;;;4.23;2.90;;;;;;;;;;4913471;29;20543;-78
2021/07/18 11:57:18;;;;;;;3.57;3.17;;;;;;;;;;4915424;29;20483;-77
2021/07/18 11:59:47;;;;;;;3.10;2.80;;;;;;;;;;4913503;29;20540;-78
2021/07/18 12:02:14;;;;;;;4.97;3.17;;;;;;;;;;4914748;29;20823;-77
2021/07/18 12:04:43;;;;;;;6.00;4.10;;;;;;;;;;4914239;29;20443;-76
2021/07/18 12:07:11;;;;;;;5.63;3.80;;;;;;;;;;4907403;29;20827;-79
2021/07/18 12:09:39;;;;;;;4.27;3.87;;;;;;;;;;4906698;29;20473;-79
2021/07/18 12:12:08;;;;;;;5.80;3.33;;;;;;;;;;4904449;29;20460;-80
2021/07/18 12:14:35;;;;;;;5.60;2.97;;;;;;;;;;4904950;29;20452;-79
2021/07/18 12:17:03;;;;;;;4.83;2.87;;;;;;;;;;4897272;29;20479;-80
2021/07/18 12:19:31;;;;;;;4.93;3.23;;;;;;;;;;4901589;29;20487;-79
2021/07/18 12:22:00;;;;;;;4.17;3.00;;;;;;;;;;4901673;29;20452;-81
2021/07/18 12:24:29;;;;;;;3.10;2.80;;;;;;;;;;4905652;29;20459;-78
2021/07/18 12:27:05;;;;;;;5.57;2.57;;;;;;;;;;4894814;29;20812;-81
2021/07/18 12:29:34;;;;;;;3.30;2.80;;;;;;;;;;4898093;29;20494;-77
2021/07/18 12:32:02;;;;;;;5.33;2.70;;;;;;;;;;4902495;29;20463;-79
2021/07/18 12:34:30;;;;;;;4.20;3.10;;;;;;;;;;4905891;29;20507;-78
2021/07/18 12:37:00;;;;;;;3.83;2.73;;;;;;;;;;4902857;29;20490;-77
2021/07/18 12:39:28;;;;;;;6.20;2.70;;;;;;;;;;4915645;29;20490;-79
2021/07/18 12:41:57;;;;;;;2.83;2.63;;;;;;;;;;4914309;29;20542;-78
2021/07/18 12:44:25;;;;;;;3.03;2.73;;;;;;;;;;4904178;29;20474;-77
2021/07/18 12:47:07;;;;;;;3.27;2.43;;;;;;;;;;4910278;29;20462;-78
2021/07/18 12:49:34;;;;;;;3.70;2.70;;;;;;;;;;4913296;29;20844;-78
2021/07/18 12:52:06;;;;;;;5.33;3.07;;;;;;;;;;4913400;29;20464;-78
2021/07/18 12:54:34;;;;;;;11.87;2.90;;;;;;;;;;4915240;29;20470;-78
2021/07/18 12:57:01;;;;;;;2.90;2.60;;;;;;;;;;4911528;29;20909;-78
2021/07/18 12:59:28;;;;;;;3.87;3.20;;;;;;;;;;4912597;29;20873;-79
2021/07/18 13:02:12;;;;;;;4.30;2.70;;;;;;;;;;4911601;29;20535;-78
2021/07/18 13:04:39;;;;;;;4.33;2.87;;;;;;;;;;4900612;29;20482;-78
2021/07/18 13:07:11;;;;;;;2.90;2.70;;;;;;;;;;4902224;29;20440;-80
2021/07/18 13:09:39;;;;;;;3.03;2.57;;;;;;;;;;4905827;29;20471;-80
2021/07/18 13:12:07;;;;;;;5.30;2.70;;;;;;;;;;4898915;29;20475;-81
2021/07/18 13:14:35;;;;;;;3.77;3.00;;;;;;;;;;4902981;29;20462;-80
2021/07/18 13:17:05;;;;;;;3.50;2.93;;;;;;;;;;4894533;29;20487;-80
2021/07/18 13:19:33;;;;;;;4.60;2.70;;;;;;;;;;4902572;29;20490;-80
2021/07/18 13:22:01;;;;;;;3.33;2.63;;;;;;;;;;4905827;29;20463;-79
2021/07/18 13:24:34;;;;;;;3.13;2.40;;;;;;;;;;4905748;29;20447;-79
2021/07/18 13:27:16;;;;;;;2.73;2.47;;;;;;;;;;4909006;29;20455;-79
2021/07/18 13:29:44;;;;;;;3.07;2.73;;;;;;;;;;4899013;29;20454;-79
2021/07/18 13:32:12;;;;;;;3.20;2.77;;;;;;;;;;4900512;29;20463;-78
2021/07/18 13:34:40;;;;;;;4.57;2.90;;;;;;;;;;4912021;29;20448;-78
2021/07/18 13:37:07;;;;;;;3.27;2.90;;;;;;;;;;4904116;29;20494;-79
2021/07/18 13:39:36;;;;;;;4.43;2.63;;;;;;;;;;4897876;29;20488;-79
2021/07/18 13:42:05;;;;;;;5.80;3.13;;;;;;;;;;4893654;29;20448;-79
2021/07/18 13:44:33;;;;;;;3.70;3.30;;;;;;;;;;4907708;29;20472;-78
2021/07/18 13:47:00;;;;;;;3.53;3.07;;;;;;;;;;4902134;29;20467;-78
2021/07/18 13:49:27;;;;;;;4.20;3.03;;;;;;;;;;4887625;29;20467;-80
2021/07/18 13:51:55;;;;;;;5.60;3.17;;;;;;;;;;4881346;29;20831;-79
2021/07/18 13:54:22;;;;;;;3.47;3.17;;;;;;;;;;4890780;29;20444;-79
2021/07/18 13:56:51;;;;;;;5.23;3.87;;;;;;;;;;4890485;29;20828;-79
2021/07/18 13:59:18;;;;;;;3.67;3.27;;;;;;;;;;4885070;29;20483;-80
2021/07/18 14:01:45;;;;;;;4.00;3.60;;;;;;;;;;4886406;29;20452;-80
2021/07/18 14:04:13;;;;;;;3.87;3.50;;;;;;;;;;4906665;29;20464;-80
2021/07/18 14:06:40;;;;;;;4.50;3.73;;;;;;;;;;4877773;29;20813;-80
2021/07/18 14:09:08;;;;;;;3.83;3.50;;;;;;;;;;4878325;29;20468;-79
2021/07/18 14:11:36;;;;;;;4.87;3.37;;;;;;;;;;4887695;29;20457;-79
2021/07/18 14:14:05;;;;;;;4.70;3.40;;;;;;;;;;4880048;29;20472;-80
2021/07/18 14:16:32;;;;;;;8.20;3.30;;;;;;;;;;4885316;29;20552;-79
2021/07/18 14:19:00;;;;;;;4.30;3.37;;;;;;;;;;4890845;29;20484;-80
2021/07/18 14:21:27;;;;;;;4.30;3.53;;;;;;;;;;4887173;29;20475;-79
2021/07/18 14:23:54;;;;;;;3.87;3.57;;;;;;;;;;4878366;29;20757;-81
2021/07/18 14:26:21;;;;;;;5.37;4.10;;;;;;;;;;4876993;29;20825;-80
2021/07/18 14:28:48;;;;;;;4.43;3.80;;;;;;;;;;4882328;29;20485;-79
2021/07/18 14:31:17;;;;;;;3.80;3.50;;;;;;;;;;4877805;29;20452;-79
2021/07/18 14:33:44;;;;;;;4.70;4.23;;;;;;;;;;4889636;29;20464;-80
2021/07/18 14:36:12;;;;;;;4.20;3.80;;;;;;;;;;4890370;29;20468;-80
2021/07/18 14:38:39;;;;;;;4.40;4.00;;;;;;;;;;4898602;29;20989;-80
2021/07/18 14:41:06;;;;;;;4.23;3.87;;;;;;;;;;4934160;29;20446;-80
2021/07/18 14:43:34;;;;;;;4.00;3.60;;;;;;;;;;4927795;29;20462;-80
2021/07/18 14:46:04;;;;;;;3.73;3.43;;;;;;;;;;4936168;29;20454;-81
2021/07/18 14:48:32;;;;;;;6.70;4.33;;;;;;;;;;4920288;29;21733;-81
2021/07/18 14:51:00;;;;;;;5.27;4.13;;;;;;;;;;4923557;29;20554;-81
2021/07/18 14:53:27;;;;;;;4.10;3.70;;;;;;;;;;4905288;29;20454;-80